Time;durP1;ratioP1;P1;durP2;ratioP2;P2;SDS_P1;SDS_P2;PMS_P1;PMS_P2;Temp;Humidity;BMP_temperature;BMP_pressure;BME280_temperature;BME280_humidity;BME280_pressure;Samples;Min_cycle;Max_cycle;Signal;HPM_P1;HPM_P2
2022/03/27 00:02:42;;;;;;;7.13;5.00;;;;;;;16.90;47.45;97567.22;10381643;28;20034;-22
2022/03/27 00:07:43;;;;;;;10.07;6.50;;;;;;;17.02;49.94;97570.00;10387277;28;20297;-23
2022/03/27 00:12:43;;;;;;;7.60;6.82;;;;;;;17.03;50.50;97571.69;10387818;28;20034;-21
2022/03/27 00:17:44;;;;;;;6.87;5.37;;;;;;;17.07;49.11;97572.63;10383411;28;20553;-22
2022/03/27 00:22:44;;;;;;;7.78;6.00;;;;;;;16.98;47.82;97563.16;10380930;28;20033;-21
2022/03/27 00:27:44;;;;;;;6.13;5.33;;;;;;;16.95;47.83;97557.19;10384079;28;20030;-22
2022/03/27 00:32:45;;;;;;;6.20;5.63;;;;;;;16.93;47.50;97561.38;10377766;28;20026;-22
2022/03/27 00:37:45;;;;;;;6.27;5.67;;;;;;;16.92;47.73;97557.13;10381530;28;20300;-22
2022/03/27 00:42:46;;;;;;;5.67;4.90;;;;;;;16.91;47.83;97568.91;10378601;28;20040;-22
2022/03/27 00:47:46;;;;;;;6.28;5.68;;;;;;;16.91;48.00;97566.38;10379097;28;20026;-21
2022/03/27 00:52:46;;;;;;;5.60;5.10;;;;;;;16.91;47.81;97565.56;10386920;28;20110;-21
2022/03/27 00:57:47;;;;;;;7.57;5.50;;;;;;;16.90;47.40;97552.03;10379857;28;20117;-21
2022/03/27 01:02:47;;;;;;;5.10;4.60;;;;;;;16.91;47.84;97552.91;10377146;28;20293;-22
2022/03/27 01:07:47;;;;;;;7.97;6.10;;;;;;;16.90;47.82;97546.97;10383040;28;20042;-24
2022/03/27 01:12:48;;;;;;;8.27;5.70;;;;;;;17.00;50.47;97543.78;10377518;28;20103;-23
2022/03/27 01:17:48;;;;;;;8.02;6.22;;;;;;;17.05;50.63;97541.34;10375845;28;20037;-22
2022/03/27 01:22:49;;;;;;;11.27;5.87;;;;;;;17.05;49.43;97537.16;10384048;28;20064;-22
2022/03/27 01:27:49;;;;;;;6.57;5.50;;;;;;;16.95;47.99;97535.28;10380733;28;20034;-22
2022/03/27 01:32:51;;;;;;;8.17;4.93;;;;;;;16.94;48.01;97527.66;10378729;28;20339;-22
2022/03/27 01:37:51;;;;;;;6.43;5.40;;;;;;;16.91;47.91;97520.03;10380562;28;20033;-21
2022/03/27 01:42:55;;;;;;;5.00;4.50;;;;;;;16.91;48.29;97517.50;10380702;28;20509;-22
2022/03/27 01:47:55;;;;;;;7.57;5.72;;;;;;;16.91;48.05;97522.56;10378722;28;20453;-22
2022/03/27 01:52:56;;;;;;;6.90;4.90;;;;;;;16.90;47.99;97525.91;10384610;28;20040;-22
2022/03/27 01:57:56;;;;;;;5.77;5.27;;;;;;;16.89;47.80;97511.56;10377501;28;20033;-22
2022/03/27 02:02:56;;;;;;;5.50;5.00;;;;;;;16.89;47.69;97519.16;10376249;28;20037;-22
2022/03/27 02:07:57;;;;;;;5.90;5.30;;;;;;;16.88;47.83;97520.81;10380242;28;20298;-22
2022/03/27 02:12:57;;;;;;;6.03;5.43;;;;;;;16.88;47.98;97515.75;10375876;28;20034;-23
2022/03/27 02:17:58;;;;;;;7.33;5.20;;;;;;;16.99;50.94;97521.03;10380581;28;20029;-23
2022/03/27 02:22:58;;;;;;;8.30;5.45;;;;;;;17.01;50.97;97517.69;10373887;28;20679;-21
2022/03/27 02:27:58;;;;;;;6.70;5.43;;;;;;;17.03;50.02;97508.44;10378555;28;20083;-22
2022/03/27 02:32:59;;;;;;;7.03;5.47;;;;;;;16.90;48.51;97500.63;10377795;28;20113;-22
2022/03/27 02:38:04;;;;;;;5.97;4.93;;;;;;;16.93;47.97;97520.91;10376720;28;20811;-22
2022/03/27 02:43:05;;;;;;;5.63;4.63;;;;;;;16.90;48.37;97509.03;10376126;28;20037;-22
2022/03/27 02:48:06;;;;;;;6.22;4.05;;;;;;;16.88;48.01;97513.22;10380499;28;20477;-21
2022/03/27 02:53:06;;;;;;;5.10;4.50;;;;;;;16.88;47.98;97519.94;10381581;28;20520;-22
2022/03/27 02:58:08;;;;;;;7.25;4.88;;;;;;;16.88;47.90;97512.34;10375730;28;20471;-22
2022/03/27 03:03:09;;;;;;;5.30;4.55;;;;;;;16.88;48.20;97513.22;10375380;28;20057;-22
2022/03/27 03:08:11;;;;;;;5.00;4.43;;;;;;;16.78;48.11;97495.31;10379277;28;20109;-21
2022/03/27 03:13:11;;;;;;;5.47;4.85;;;;;;;16.87;47.80;97511.53;10375602;28;20092;-22
2022/03/27 03:18:12;;;;;;;4.65;4.25;;;;;;;16.77;48.08;97502.06;10379090;28;20084;-22
2022/03/27 03:23:12;;;;;;;8.20;5.78;;;;;;;16.97;50.92;97504.94;10376307;28;20482;-22
2022/03/27 03:28:13;;;;;;;7.20;5.10;;;;;;;16.97;50.94;97502.41;10377755;28;20048;-21
2022/03/27 03:33:13;;;;;;;7.72;4.97;;;;;;;17.04;50.36;97504.22;10376457;28;20042;-21
2022/03/27 03:38:14;;;;;;;7.47;4.67;;;;;;;16.98;48.84;97507.50;10375394;28;20052;-21
2022/03/27 03:43:14;;;;;;;5.40;4.50;;;;;;;16.94;48.37;97509.94;10385068;28;20038;-22
2022/03/27 03:48:15;;;;;;;5.83;4.87;;;;;;;16.90;48.54;97505.69;10382964;28;20052;-22
2022/03/27 03:53:16;;;;;;;7.43;4.55;;;;;;;16.80;48.28;97496.19;10387380;28;20302;-22
2022/03/27 03:58:16;;;;;;;4.65;4.25;;;;;;;16.87;48.06;97505.59;10379079;28;20037;-22
2022/03/27 04:03:17;;;;;;;5.57;4.20;;;;;;;16.87;48.19;97501.41;10380693;28;20046;-22
2022/03/27 04:08:18;;;;;;;5.20;4.70;;;;;;;16.85;48.27;97510.66;10385650;28;20370;-22
2022/03/27 04:13:18;;;;;;;7.00;4.25;;;;;;;16.85;48.39;97509.78;10380228;28;20310;-22
2022/03/27 04:18:19;;;;;;;5.93;4.60;;;;;;;16.86;48.15;97511.50;10380337;28;20038;-22
2022/03/27 04:23:19;;;;;;;5.30;4.67;;;;;;;16.85;48.02;97502.19;10387307;28;20026;-22
2022/03/27 04:28:20;;;;;;;6.05;4.75;;;;;;;16.93;50.41;97505.72;10383772;28;20030;-22
2022/03/27 04:33:20;;;;;;;6.67;5.27;;;;;;;16.96;51.19;97510.81;10382434;28;20036;-22
2022/03/27 04:38:20;;;;;;;6.00;5.40;;;;;;;17.00;51.17;97518.50;10381536;28;20281;-22
2022/03/27 04:43:22;;;;;;;5.27;4.67;;;;;;;16.99;49.81;97521.03;10382529;28;20042;-22
2022/03/27 04:48:25;;;;;;;6.68;4.85;;;;;;;16.93;48.36;97518.38;10383533;28;20828;-22
2022/03/27 04:53:25;;;;;;;5.22;4.13;;;;;;;16.91;48.29;97525.09;10383012;28;20049;-23
2022/03/27 04:58:26;;;;;;;4.57;3.93;;;;;;;16.88;48.37;97538.53;10384548;28;20395;-22
2022/03/27 05:03:26;;;;;;;5.50;4.70;;;;;;;16.86;48.13;97540.16;10385434;28;20121;-22
2022/03/27 05:08:27;;;;;;;5.17;4.50;;;;;;;16.86;48.45;97540.16;10385167;28;20441;-22
2022/03/27 05:13:27;;;;;;;4.57;4.05;;;;;;;16.85;48.10;97537.59;10382213;28;20402;-22
2022/03/27 05:18:27;;;;;;;5.27;4.57;;;;;;;16.83;48.01;97534.19;10377631;28;20060;-22
2022/03/27 05:23:28;;;;;;;4.20;3.73;;;;;;;16.79;48.44;97529.88;10384388;28;20296;-22
2022/03/27 05:28:30;;;;;;;5.97;4.22;;;;;;;16.78;48.67;97531.59;10379815;28;20030;-21
2022/03/27 05:33:30;;;;;;;4.18;3.78;;;;;;;16.82;48.05;97542.63;10380863;28;20040;-22
2022/03/27 05:38:31;;;;;;;4.80;4.10;;;;;;;16.93;51.04;97546.19;10379030;28;20371;-21
2022/03/27 05:43:31;;;;;;;4.90;4.32;;;;;;;16.96;51.32;97557.22;10376258;28;20041;-22
2022/03/27 05:48:32;;;;;;;5.90;4.25;;;;;;;16.98;49.97;97560.63;10384876;28;20445;-22
2022/03/27 05:53:32;;;;;;;5.45;4.50;;;;;;;16.95;48.84;97559.72;10378026;28;20053;-21
2022/03/27 05:58:35;;;;;;;5.15;4.00;;;;;;;16.90;48.36;97556.25;10376502;28;20034;-22
2022/03/27 06:03:35;;;;;;;5.45;4.25;;;;;;;16.86;48.63;97559.53;10374820;28;20068;-21
2022/03/27 06:08:36;;;;;;;4.87;4.27;;;;;;;16.84;48.42;97569.63;10378608;28;20323;-22
2022/03/27 06:13:36;;;;;;;5.50;4.10;;;;;;;16.85;48.26;97567.94;10378749;28;20494;-22
2022/03/27 06:18:36;;;;;;;5.10;4.07;;;;;;;16.82;48.38;97573.78;10377768;28;20388;-23
2022/03/27 06:23:37;;;;;;;4.33;3.93;;;;;;;16.83;48.19;97574.66;10377043;28;20343;-22
2022/03/27 06:28:37;;;;;;;6.70;3.93;;;;;;;16.84;48.58;97578.91;10379893;28;20634;-22
2022/03/27 06:33:38;;;;;;;5.77;3.70;;;;;;;16.86;48.64;97595.81;10377539;28;20053;-22
2022/03/27 06:38:39;;;;;;;4.93;4.47;;;;;;;16.83;48.40;97587.31;10379059;28;20330;-22
2022/03/27 06:43:40;;;;;;;4.57;3.95;;;;;;;16.92;50.77;97587.50;10376779;28;20087;-21
2022/03/27 06:48:40;;;;;;;8.20;4.88;;;;;;;17.02;50.92;97584.31;10378073;28;20022;-22
2022/03/27 06:53:41;;;;;;;5.30;4.03;;;;;;;17.03;50.73;97589.41;10370092;28;20509;-23
2022/03/27 06:58:42;;;;;;;6.30;4.32;;;;;;;16.99;49.56;97592.69;10357582;28;20099;-21
2022/03/27 07:03:42;;;;;;;11.67;6.20;;;;;;;16.88;47.88;97585.69;10373980;28;20096;-21
2022/03/27 07:08:43;;;;;;;12.13;6.37;;;;;;;16.87;48.61;97581.47;10380409;28;20303;-22
2022/03/27 07:13:43;;;;;;;13.20;8.15;;;;;;;16.55;44.37;97577.44;10389552;28;20120;-21
2022/03/27 07:18:49;;;;;;;9.93;5.20;;;;;;;16.61;46.24;97582.63;10383488;28;20141;-22
2022/03/27 07:23:49;;;;;;;5.13;4.22;;;;;;;16.71;47.17;97584.50;10386383;28;20041;-22
2022/03/27 07:28:50;;;;;;;11.30;5.80;;;;;;;16.77;47.69;97578.75;10388273;28;20036;-22
2022/03/27 07:33:52;;;;;;;12.02;5.95;;;;;;;16.79;47.71;97588.06;10380736;28;20036;-22
2022/03/27 07:38:52;;;;;;;11.52;7.35;;;;;;;16.73;47.51;97590.47;10384339;28;20030;-22
2022/03/27 07:43:53;;;;;;;8.93;5.73;;;;;;;16.71;47.54;97584.50;10383368;28;20040;-22
2022/03/27 07:48:53;;;;;;;12.03;6.10;;;;;;;16.76;48.23;97582.94;10390584;28;20091;-22
2022/03/27 07:53:53;;;;;;;16.13;7.27;;;;;;;16.84;50.25;97577.19;10384297;28;20092;-21
2022/03/27 07:58:54;;;;;;;22.47;6.83;;;;;;;16.93;50.16;97572.34;10384312;28;20300;-21
2022/03/27 08:03:56;;;;;;;8.27;5.47;;;;;;;16.94;49.88;97578.25;10379225;28;20312;-22
2022/03/27 08:08:56;;;;;;;6.30;5.30;;;;;;;16.84;48.44;97578.91;10392914;28;20038;-21
2022/03/27 08:13:57;;;;;;;10.37;5.63;;;;;;;16.79;48.35;97583.00;10379834;28;20433;-22
2022/03/27 08:18:57;;;;;;;6.93;4.13;;;;;;;16.78;48.60;97586.34;10385489;28;20431;-21
2022/03/27 08:23:58;;;;;;;5.57;3.80;;;;;;;16.78;48.35;97591.41;10380021;28;20292;-22
2022/03/27 08:29:02;;;;;;;4.20;3.67;;;;;;;16.77;48.26;97592.22;10383456;28;20038;-22
2022/03/27 08:34:03;;;;;;;9.15;5.78;;;;;;;16.75;49.04;97566.91;10388347;28;20505;-23
2022/03/27 08:39:03;;;;;;;30.20;7.80;;;;;;;16.77;49.80;97594.75;10388012;28;20109;-22
2022/03/27 08:44:04;;;;;;;27.87;9.57;;;;;;;16.86;49.62;97590.75;10388765;28;20030;-22
2022/03/27 08:49:27;;;;;;;19.92;6.68;;;;;;;16.77;48.62;97588.03;10385503;28;20765;-23
2022/03/27 08:55:01;;;;;;;18.65;7.47;;;;;;;16.61;48.56;97567.44;10382488;28;20041;-21
2022/03/27 09:00:04;;;;;;;20.58;6.90;;;;;;;16.74;48.67;97594.72;10380120;28;20032;-22
2022/03/27 09:05:05;;;;;;;12.05;8.07;;;;;;;16.88;50.81;97588.22;10384055;28;20127;-21
2022/03/27 09:10:08;;;;;;;17.15;8.93;;;;;;;16.94;50.96;97594.28;10379075;28;20084;-23
2022/03/27 09:15:10;;;;;;;9.95;6.78;;;;;;;16.93;50.26;97594.25;10376948;28;20508;-22
2022/03/27 09:20:10;;;;;;;11.52;6.82;;;;;;;16.89;49.10;97600.91;10381005;28;20029;-22
2022/03/27 09:25:11;;;;;;;11.38;5.65;;;;;;;16.79;48.77;97598.16;10378804;28;20033;-22
2022/03/27 09:30:12;;;;;;;8.57;6.53;;;;;;;16.79;48.62;97605.75;10376773;28;20037;-21
2022/03/27 09:35:17;;;;;;;7.55;5.00;;;;;;;16.00;48.88;97607.31;10374508;28;20788;-20
2022/03/27 09:40:17;;;;;;;15.02;8.45;;;;;;;15.75;46.69;97605.03;10383976;28;20029;-21
2022/03/27 09:45:25;;;;;;;24.30;12.48;;;;;;;15.25;43.83;97607.03;10378224;28;20029;-21
2022/03/27 09:50:34;;;;;;;24.27;13.57;;;;;;;15.01;41.63;97602.19;10372666;28;20056;-21
2022/03/27 09:55:34;;;;;;;24.38;13.38;;;;;;;15.22;43.23;97604.44;10380304;28;20056;-21
2022/03/27 10:00:35;;;;;;;23.07;14.13;;;;;;;15.21;42.70;97603.59;10370399;28;20030;-21
2022/03/27 10:05:36;;;;;;;24.00;13.50;;;;;;;15.38;42.55;97609.09;10375431;28;20030;-21
2022/03/27 10:10:36;;;;;;;21.25;13.45;;;;;;;15.31;42.60;97600.53;10385275;28;20029;-21
2022/03/27 10:15:37;;;;;;;20.35;12.15;;;;;;;15.35;42.30;97604.81;10387552;28;20049;-21
2022/03/27 10:20:38;;;;;;;21.00;12.25;;;;;;;15.44;42.82;97594.97;10384477;28;20053;-20
2022/03/27 10:25:45;;;;;;;25.58;13.60;;;;;;;15.23;41.71;97586.81;10388816;28;20072;-21
2022/03/27 10:30:49;;;;;;;24.35;13.23;;;;;;;15.34;41.86;97597.25;10389025;28;20026;-21
2022/03/27 10:36:02;;;;;;;23.58;13.10;;;;;;;15.16;40.80;97592.53;10382919;28;20057;-21
2022/03/27 10:41:15;;;;;;;24.88;13.70;;;;;;;15.15;40.88;97593.34;10368451;28;20109;-21
2022/03/27 10:46:23;;;;;;;25.85;14.90;;;;;;;15.11;40.96;97590.69;10381974;28;20584;-21
2022/03/27 10:51:28;;;;;;;24.42;13.70;;;;;;;15.28;41.55;97594.50;10389513;28;20103;-21
2022/03/27 10:56:43;;;;;;;23.75;12.25;;;;;;;15.37;40.97;97588.06;10398428;28;20033;-20
2022/03/27 11:01:54;;;;;;;23.05;13.98;;;;;;;15.26;41.59;97579.31;10390348;28;20406;-21
2022/03/27 11:07:18;;;;;;;24.02;13.35;;;;;;;15.30;41.96;97573.56;10385016;28;20179;-21
2022/03/27 11:12:24;;;;;;;22.85;13.25;;;;;;;15.43;42.00;97574.75;10380341;28;20508;-21
2022/03/27 11:17:38;;;;;;;23.30;12.73;;;;;;;15.26;42.18;97566.72;10382894;28;20603;-21
2022/03/27 11:22:47;;;;;;;22.23;13.13;;;;;;;15.40;42.92;97567.09;10374793;28;20509;-21
2022/03/27 11:27:55;;;;;;;29.38;13.25;;;;;;;15.36;42.41;97562.81;10372077;28;20042;-21
2022/03/27 11:33:11;;;;;;;26.05;13.63;;;;;;;15.42;42.18;97565.47;10368694;28;20037;-21
2022/03/27 11:38:21;;;;;;;29.93;13.10;;;;;;;15.26;41.95;97559.16;10377333;28;20099;-21
2022/03/27 11:43:30;;;;;;;18.65;11.77;;;;;;;15.26;42.23;97569.25;10379187;28;20026;-22
2022/03/27 11:48:30;;;;;;;19.73;12.52;;;;;;;15.55;42.59;97558.25;10378518;28;20052;-21
2022/03/27 11:53:32;;;;;;;23.53;12.30;;;;;;;15.60;41.79;97551.63;10390678;28;20719;-21
2022/03/27 11:58:34;;;;;;;17.02;12.35;;;;;;;15.57;42.51;97556.63;10379708;28;20703;-22
2022/03/27 12:03:36;;;;;;;20.70;11.57;;;;;;;15.64;43.24;97557.63;10375064;28;20033;-22
2022/03/27 12:08:39;;;;;;;25.40;11.93;;;;;;;15.70;42.63;97558.59;10372163;28;20254;-21
2022/03/27 12:13:43;;;;;;;20.35;11.70;;;;;;;15.69;43.21;97551.03;10385066;28;20042;-21
2022/03/27 12:18:45;;;;;;;17.40;10.80;;;;;;;15.68;42.56;97545.09;10387517;28;20065;-21
2022/03/27 12:24:02;;;;;;;17.33;10.73;;;;;;;15.59;43.59;97544.88;10378210;28;20037;-21
2022/03/27 12:34:32;;;;;;;18.63;10.88;;;;;;;15.75;43.88;97524.25;10389913;28;20436;-21
2022/03/27 12:39:32;;;;;;;22.05;11.43;;;;;;;15.88;42.60;97518.63;10369245;28;20266;-21
2022/03/27 12:44:51;;;;;;;18.75;11.32;;;;;;;15.97;42.71;97518.88;10381623;28;20033;-21
2022/03/27 12:49:52;;;;;;;20.05;12.07;;;;;;;15.85;43.78;97516.06;10386694;28;20335;-20
2022/03/27 12:55:05;;;;;;;23.17;12.53;;;;;;;15.69;43.90;97524.09;10387751;28;20059;-21
2022/03/27 13:00:13;;;;;;;19.10;11.35;;;;;;;15.89;43.53;97515.31;10381139;28;20025;-21
2022/03/27 13:05:16;;;;;;;21.10;11.35;;;;;;;15.90;44.25;97506.91;10385107;28;20026;-22
2022/03/27 13:10:16;;;;;;;19.85;11.05;;;;;;;15.98;43.64;97510.47;10381919;28;20043;-22
2022/03/27 13:15:47;;;;;;;23.20;8.63;;;;;;;16.33;45.70;97507.03;10379870;28;20040;-21
2022/03/27 13:20:47;;;;;;;16.85;10.80;;;;;;;15.83;44.41;97500.03;10377479;28;20045;-21
2022/03/27 13:25:48;;;;;;;19.60;10.27;;;;;;;16.16;43.90;97505.81;10378678;28;20378;-21
2022/03/27 13:30:48;;;;;;;19.67;10.88;;;;;;;16.16;44.39;97493.19;10381624;28;20519;-21
2022/03/27 13:35:49;;;;;;;19.63;10.97;;;;;;;15.65;44.86;97468.44;10378845;28;20042;-21
2022/03/27 13:46:09;;;;;;;20.85;12.85;;;;;;;15.84;43.67;97456.28;10374570;28;20062;-21
2022/03/27 13:51:09;;;;;;;18.27;11.25;;;;;;;16.26;44.13;97474.00;10378725;28;20504;-20
2022/03/27 13:56:11;;;;;;;20.83;12.65;;;;;;;15.98;43.97;97469.19;10365810;28;20031;-21
2022/03/27 14:01:12;;;;;;;23.83;13.05;;;;;;;16.02;44.36;97460.88;10384062;28;20091;-21
2022/03/27 14:06:12;;;;;;;24.77;14.70;;;;;;;15.82;44.52;97462.97;10379680;28;20508;-21
2022/03/27 14:11:13;;;;;;;27.87;14.47;;;;;;;15.80;44.96;97459.56;10380896;28;20112;-21
2022/03/27 14:16:14;;;;;;;24.00;13.57;;;;;;;15.98;43.97;97442.28;10390870;28;20033;-21
2022/03/27 14:21:14;;;;;;;20.63;11.52;;;;;;;16.45;44.65;97448.34;10369421;28;20038;-21
2022/03/27 14:26:15;;;;;;;21.80;12.82;;;;;;;15.73;44.74;97444.25;10373042;28;20437;-21
2022/03/27 14:31:15;;;;;;;18.23;12.00;;;;;;;16.28;44.46;97432.78;10373819;28;20038;-21
2022/03/27 14:36:16;;;;;;;21.63;11.83;;;;;;;15.67;45.08;97432.34;10378834;28;20030;-21
2022/03/27 14:41:17;;;;;;;22.52;10.73;;;;;;;15.89;44.04;97431.13;10376064;28;20057;-21
2022/03/27 14:46:17;;;;;;;17.90;10.60;;;;;;;16.06;43.37;97428.16;10374934;28;20036;-21
2022/03/27 14:51:18;;;;;;;17.13;10.60;;;;;;;15.84;44.99;97408.31;10378047;28;20030;-21
2022/03/27 14:56:21;;;;;;;18.77;11.07;;;;;;;15.69;44.94;97420.59;10379115;28;20077;-22
2022/03/27 15:01:21;;;;;;;17.17;10.75;;;;;;;15.93;44.25;97413.53;10373367;28;20034;-21
2022/03/27 15:06:21;;;;;;;18.93;9.77;;;;;;;15.81;44.18;97405.72;10382527;28;20026;-21
2022/03/27 15:11:23;;;;;;;17.77;10.10;;;;;;;15.85;44.13;97407.47;10371790;28;20580;-21
2022/03/27 15:16:23;;;;;;;22.98;10.52;;;;;;;16.02;43.60;97405.31;10379480;28;20296;-21
2022/03/27 15:21:23;;;;;;;17.77;10.33;;;;;;;15.74;43.89;97398.84;10380672;28;20037;-23
2022/03/27 15:26:24;;;;;;;15.35;9.60;;;;;;;16.00;44.10;97392.66;10370534;28;20296;-21
2022/03/27 15:31:24;;;;;;;19.23;10.13;;;;;;;15.90;43.93;97394.94;10379201;28;20410;-21
2022/03/27 15:36:27;;;;;;;17.27;9.98;;;;;;;15.98;44.21;97394.31;10380852;28;20033;-21
2022/03/27 15:41:27;;;;;;;12.35;7.95;;;;;;;16.05;43.92;97385.16;10382909;28;20041;-24
2022/03/27 15:46:28;;;;;;;16.23;8.73;;;;;;;16.05;43.29;97385.16;10384972;28;20102;-21
2022/03/27 15:51:28;;;;;;;19.67;9.77;;;;;;;15.87;43.95;97383.09;10396957;28;20326;-21
2022/03/27 15:56:29;;;;;;;15.67;9.60;;;;;;;15.91;42.82;97382.38;10383061;28;20661;-22
2022/03/27 16:01:29;;;;;;;15.77;8.85;;;;;;;16.24;43.38;97382.16;10376011;28;20529;-22
2022/03/27 16:06:30;;;;;;;16.40;8.20;;;;;;;16.47;44.90;97386.03;10386565;28;20430;-21
2022/03/27 16:11:31;;;;;;;12.73;7.72;;;;;;;16.59;45.69;97386.22;10386353;28;20026;-21
2022/03/27 16:16:32;;;;;;;14.38;8.55;;;;;;;16.54;44.50;97382.78;10390279;28;20045;-21
2022/03/27 16:21:32;;;;;;;12.23;7.90;;;;;;;16.51;43.34;97386.09;10381010;28;20053;-22
2022/03/27 16:26:33;;;;;;;13.33;8.60;;;;;;;16.47;42.93;97386.03;10377994;28;20030;-21
2022/03/27 16:31:34;;;;;;;12.05;6.38;;;;;;;16.64;46.11;97384.66;10384675;28;20112;-22
2022/03/27 16:36:34;;;;;;;12.80;6.50;;;;;;;16.56;44.92;97376.94;10387330;28;20519;-22
2022/03/27 16:41:34;;;;;;;10.87;6.30;;;;;;;16.54;45.75;97383.63;10381141;28;20036;-21
2022/03/27 16:46:35;;;;;;;10.85;5.97;;;;;;;16.60;45.64;97377.84;10389728;28;20061;-22
2022/03/27 16:51:36;;;;;;;13.68;6.55;;;;;;;16.60;45.41;97383.75;10374262;28;20025;-22
2022/03/27 16:56:36;;;;;;;9.52;5.82;;;;;;;16.57;45.19;97383.69;10375680;28;20569;-22
2022/03/27 17:01:37;;;;;;;13.07;6.47;;;;;;;16.61;45.20;97390.50;10380084;28;20049;-22
2022/03/27 17:06:37;;;;;;;12.23;6.80;;;;;;;16.58;45.58;97380.34;10386270;28;20095;-22
2022/03/27 17:11:41;;;;;;;10.63;6.00;;;;;;;16.59;45.37;97391.28;10383802;28;20052;-22
2022/03/27 17:16:41;;;;;;;17.35;8.10;;;;;;;16.74;50.74;97405.91;10383560;28;20560;-22
2022/03/27 17:21:42;;;;;;;17.47;9.23;;;;;;;16.81;51.25;97401.81;10382979;28;20088;-22
2022/03/27 17:26:42;;;;;;;13.37;6.63;;;;;;;16.74;49.83;97387.38;10379327;28;20342;-22
2022/03/27 17:31:42;;;;;;;14.68;7.47;;;;;;;16.75;47.47;97409.31;10382530;28;20347;-22
2022/03/27 17:36:43;;;;;;;10.30;6.63;;;;;;;16.70;46.82;97405.81;10382589;28;20037;-22
2022/03/27 17:41:43;;;;;;;12.87;6.10;;;;;;;16.67;46.00;97410.84;10378372;28;20092;-22
2022/03/27 17:46:44;;;;;;;9.88;5.68;;;;;;;16.66;46.16;97413.31;10383610;28;20022;-22
2022/03/27 17:51:44;;;;;;;8.43;5.55;;;;;;;16.64;45.91;97420.91;10372749;28;20509;-22
2022/03/27 17:56:45;;;;;;;13.67;5.73;;;;;;;16.63;45.92;97425.94;10373115;28;20497;-22
2022/03/27 18:01:48;;;;;;;10.88;5.55;;;;;;;16.66;45.88;97431.88;10375659;28;20091;-23
2022/03/27 18:06:49;;;;;;;9.48;5.25;;;;;;;16.64;46.29;97431.00;10379776;28;20047;-22
2022/03/27 18:11:49;;;;;;;8.80;5.60;;;;;;;16.62;45.93;97436.88;10380823;28;20324;-22
2022/03/27 18:16:50;;;;;;;12.85;7.18;;;;;;;16.65;46.01;97447.88;10377869;28;20038;-22
2022/03/27 18:21:51;;;;;;;14.43;6.47;;;;;;;16.66;46.15;97453.78;10373993;28;20025;-22
2022/03/27 18:26:52;;;;;;;13.90;7.60;;;;;;;16.75;50.74;97469.97;10373593;28;20048;-22
2022/03/27 18:31:52;;;;;;;13.48;7.93;;;;;;;16.82;50.56;97477.69;10373853;28;20058;-22
2022/03/27 18:36:54;;;;;;;12.35;6.72;;;;;;;16.87;49.91;97475.25;10372220;28;20393;-22
2022/03/27 18:41:56;;;;;;;7.00;5.38;;;;;;;16.77;46.26;97488.56;10375381;28;20036;-22
2022/03/27 18:46:56;;;;;;;9.40;5.15;;;;;;;16.78;46.43;97502.91;10374226;28;20037;-22
2022/03/27 18:51:57;;;;;;;7.47;4.87;;;;;;;16.77;46.16;97499.53;10375424;28;20493;-22
2022/03/27 18:57:03;;;;;;;7.37;5.07;;;;;;;16.77;46.17;97504.59;10367358;28;20564;-22
2022/03/27 19:02:04;;;;;;;10.40;4.90;;;;;;;16.77;46.02;97503.72;10375670;28;20029;-21
2022/03/27 19:07:06;;;;;;;6.70;4.78;;;;;;;16.73;45.84;97506.16;10375750;28;20033;-22
2022/03/27 19:12:09;;;;;;;8.00;5.35;;;;;;;16.74;46.07;97508.75;10380313;28;20033;-21
2022/03/27 19:17:31;;;;;;;8.68;5.70;;;;;;;16.72;46.08;97512.91;10386286;28;20029;-21
2022/03/27 19:22:35;;;;;;;8.50;5.32;;;;;;;16.70;46.08;97512.00;10386576;28;20523;-22
2022/03/27 19:27:36;;;;;;;10.13;5.18;;;;;;;16.77;45.99;97523.97;10384087;28;20037;-22
2022/03/27 19:32:36;;;;;;;7.43;5.25;;;;;;;16.77;45.98;97518.91;10385771;28;20482;-21
2022/03/27 19:37:37;;;;;;;17.50;10.45;;;;;;;16.90;50.57;97525.91;10384185;28;20117;-22
2022/03/27 19:42:39;;;;;;;14.07;10.32;;;;;;;16.97;51.13;97532.75;10380522;28;20049;-22
2022/03/27 19:47:40;;;;;;;12.57;8.65;;;;;;;16.92;48.70;97526.78;10388549;28;20046;-21
2022/03/27 19:52:40;;;;;;;6.60;5.63;;;;;;;16.86;47.15;97534.25;10387973;28;20038;-22
2022/03/27 19:57:40;;;;;;;5.72;4.75;;;;;;;16.81;46.51;97536.69;10377287;28;20400;-21
2022/03/27 20:02:44;;;;;;;8.45;5.80;;;;;;;16.83;46.65;97541.78;10378801;28;20387;-22
2022/03/27 20:07:45;;;;;;;6.15;5.18;;;;;;;16.73;46.55;97527.25;10383118;28;20029;-21
2022/03/27 20:12:48;;;;;;;8.38;5.00;;;;;;;16.73;46.92;97538.22;10379291;28;20486;-22
2022/03/27 20:17:48;;;;;;;9.15;6.03;;;;;;;16.78;47.35;97544.22;10387877;28;20041;-22
2022/03/27 20:22:49;;;;;;;7.60;5.47;;;;;;;16.78;46.76;97548.41;10381302;28;20034;-22
2022/03/27 20:27:50;;;;;;;7.50;5.10;;;;;;;16.86;48.01;97554.47;10382205;28;20048;-22
2022/03/27 20:32:50;;;;;;;6.10;5.50;;;;;;;16.82;46.81;97552.72;10385546;28;20033;-22
2022/03/27 20:37:51;;;;;;;6.85;5.15;;;;;;;16.81;46.84;97558.63;10385942;28;20092;-22
2022/03/27 20:42:53;;;;;;;7.37;6.03;;;;;;;16.81;46.86;97558.63;10381783;28;20025;-22
2022/03/27 20:47:55;;;;;;;9.77;7.97;;;;;;;16.88;56.29;97557.88;10395211;28;20034;-22
2022/03/27 20:52:56;;;;;;;8.30;7.32;;;;;;;16.93;55.36;97554.66;10388070;28;20064;-22
2022/03/27 20:57:56;;;;;;;10.00;6.32;;;;;;;16.91;50.85;97563.03;10378922;28;20120;-22
2022/03/27 21:02:57;;;;;;;9.07;6.03;;;;;;;16.84;47.80;97554.44;10388775;28;20057;-22
2022/03/27 21:07:57;;;;;;;8.20;5.83;;;;;;;16.80;47.17;97560.28;10388592;28;20345;-22
2022/03/27 21:12:58;;;;;;;8.95;6.38;;;;;;;16.78;47.21;97558.53;10362519;28;20037;-21
2022/03/27 21:17:58;;;;;;;6.63;5.40;;;;;;;16.76;47.38;97560.19;10386234;28;20041;-22
2022/03/27 21:22:59;;;;;;;5.95;5.03;;;;;;;16.75;47.06;97550.91;10380178;28;20774;-21
2022/03/27 21:28:00;;;;;;;5.15;4.65;;;;;;;16.74;47.19;97542.44;10384011;28;20029;-21
2022/03/27 21:33:02;;;;;;;5.80;4.80;;;;;;;16.73;47.33;97545.81;10390533;28;20523;-22
2022/03/27 21:38:03;;;;;;;8.38;5.47;;;;;;;16.75;47.26;97544.16;10378193;28;20026;-22
2022/03/27 21:43:04;;;;;;;5.95;5.35;;;;;;;16.74;47.47;97546.66;10383561;28;20497;-21
2022/03/27 21:48:05;;;;;;;6.60;4.97;;;;;;;16.75;46.91;97543.31;10378008;28;20493;-21
2022/03/27 21:53:05;;;;;;;6.88;5.18;;;;;;;16.75;47.11;97540.78;10384008;28;20033;-22
2022/03/27 21:58:08;;;;;;;10.35;6.53;;;;;;;16.88;54.56;97538.53;10375951;28;20056;-21
2022/03/27 22:03:09;;;;;;;8.30;6.38;;;;;;;16.94;52.63;97547.91;10384246;28;20078;-22
2022/03/27 22:08:09;;;;;;;9.10;6.30;;;;;;;16.90;50.74;97533.50;10384578;28;20493;-22
2022/03/27 22:13:10;;;;;;;7.13;5.40;;;;;;;16.80;48.03;97540.03;10376700;28;20387;-22
2022/03/27 22:18:11;;;;;;;6.57;4.65;;;;;;;16.79;47.47;97537.47;10381883;28;20033;-21
2022/03/27 22:23:12;;;;;;;5.55;4.43;;;;;;;16.75;47.33;97535.72;10377958;28;20093;-21
2022/03/27 22:28:12;;;;;;;7.18;4.65;;;;;;;16.73;47.28;97532.31;10381413;28;20535;-22
2022/03/27 22:33:13;;;;;;;5.10;4.20;;;;;;;16.76;47.20;97539.97;10379732;28;20126;-21
2022/03/27 22:38:13;;;;;;;5.43;4.25;;;;;;;16.74;47.19;97531.50;10377295;28;20056;-21
2022/03/27 22:43:14;;;;;;;4.50;4.10;;;;;;;16.74;46.98;97534.03;10382091;28;20033;-21
2022/03/27 22:48:14;;;;;;;6.22;4.30;;;;;;;16.73;47.12;97529.78;10386782;28;20040;-21
2022/03/27 22:53:15;;;;;;;7.23;4.80;;;;;;;16.72;47.38;97538.22;10390302;28;20037;-21
2022/03/27 22:58:15;;;;;;;5.43;4.07;;;;;;;16.70;47.37;97529.72;10383395;28;20155;-22
2022/03/27 23:03:16;;;;;;;5.70;4.65;;;;;;;16.73;47.11;97536.50;10392970;28;20033;-22
2022/03/27 23:08:16;;;;;;;7.50;5.75;;;;;;;16.89;53.71;97540.22;10396069;28;20509;-22
2022/03/27 23:13:16;;;;;;;6.38;5.28;;;;;;;16.95;53.58;97539.47;10384314;28;20091;-22
2022/03/27 23:18:18;;;;;;;8.30;5.20;;;;;;;16.90;50.87;97536.03;10397065;28;20050;-22
2022/03/27 23:23:18;;;;;;;7.38;4.80;;;;;;;16.80;47.87;97532.47;10386018;28;20065;-22